Time;durP1;ratioP1;P1;durP2;ratioP2;P2;SDS_P1;SDS_P2;PMS_P1;PMS_P2;Temp;Humidity;BMP_temperature;BMP_pressure;BME280_temperature;BME280_humidity;BME280_pressure;Samples;Min_cycle;Max_cycle;Signal;HPM_P1;HPM_P2
2022/05/28 00:00:56;;;;;;;8.73;3.77;;;;;;;11.79;88.70;96006.50;4995995;28;20263;-80
2022/05/28 00:03:23;;;;;;;12.40;4.97;;;;;;;11.69;88.53;96010.94;4997747;28;20172;-81
2022/05/28 00:05:48;;;;;;;9.63;3.90;;;;;;;11.75;86.36;96019.94;5039065;28;20171;-80
2022/05/28 00:08:14;;;;;;;6.53;3.67;;;;;;;11.70;85.69;96020.38;5007348;28;20207;-79
2022/05/28 00:10:39;;;;;;;11.33;4.20;;;;;;;11.70;88.41;96022.16;5030133;28;20191;-79
2022/05/28 00:13:05;;;;;;;8.10;3.93;;;;;;;11.71;90.10;96023.78;4995691;28;20172;-80
2022/05/28 00:15:30;;;;;;;9.33;4.90;;;;;;;11.72;91.30;96022.81;4994278;28;20267;-79
2022/05/28 00:17:57;;;;;;;6.60;4.57;;;;;;;11.70;91.57;96027.38;5020641;28;20215;-78
2022/05/28 00:20:23;;;;;;;11.43;4.33;;;;;;;11.64;91.59;96020.94;5020872;28;20163;-78
2022/05/28 00:22:48;;;;;;;8.03;4.37;;;;;;;11.61;91.06;96010.81;5052989;28;20259;-78
2022/05/28 00:25:15;;;;;;;8.33;3.53;;;;;;;11.43;91.96;96008.16;5020096;28;20175;-78
2022/05/28 00:27:41;;;;;;;7.80;4.23;;;;;;;11.42;89.39;96006.50;5000347;28;20231;-81
2022/05/28 00:30:08;;;;;;;7.57;4.17;;;;;;;11.41;89.66;96006.66;4994883;28;20583;-81
2022/05/28 00:32:33;;;;;;;9.87;4.17;;;;;;;11.38;90.34;96012.13;5017994;28;20241;-81
2022/05/28 00:34:58;;;;;;;6.43;3.77;;;;;;;11.35;90.47;96006.25;5017197;28;20190;-80
2022/05/28 00:37:24;;;;;;;7.83;3.90;;;;;;;11.26;89.74;96001.91;5017897;28;20234;-80
2022/05/28 00:39:49;;;;;;;10.97;4.23;;;;;;;11.19;88.06;96011.22;5017409;28;20182;-81
2022/05/28 00:42:14;;;;;;;11.10;4.03;;;;;;;11.16;88.22;96018.47;5017289;28;20189;-80
2022/05/28 00:44:40;;;;;;;11.67;3.97;;;;;;;11.12;88.03;96009.31;5000469;28;20649;-78
2022/05/28 00:47:05;;;;;;;8.27;3.93;;;;;;;11.06;87.02;96014.13;5000258;28;20225;-80
2022/05/28 00:49:32;;;;;;;13.60;3.90;;;;;;;10.92;83.12;96011.13;5017024;28;20656;-80
2022/05/28 00:52:00;;;;;;;8.23;3.60;;;;;;;10.84;84.69;96009.19;5000242;28;20190;-80
2022/05/28 00:54:32;;;;;;;9.63;3.63;;;;;;;10.85;84.78;96013.44;5030382;28;20175;-80
2022/05/28 00:56:59;;;;;;;4.97;3.30;;;;;;;10.81;83.37;96017.28;4997592;28;20198;-79
2022/05/28 00:59:24;;;;;;;9.00;3.50;;;;;;;10.69;82.45;96013.16;5013985;28;20194;-78
2022/05/28 01:01:50;;;;;;;10.07;3.63;;;;;;;10.66;82.20;96029.03;4997639;28;20633;-78
2022/05/28 01:04:30;;;;;;;7.13;3.63;;;;;;;10.58;83.14;96021.09;4997276;28;20195;-79
2022/05/28 01:07:03;;;;;;;7.70;3.37;;;;;;;10.49;82.66;96018.34;5015415;28;20202;-80
2022/05/28 01:10:17;;;;;;;5.37;3.23;;;;;;;10.37;81.46;96019.44;5009211;28;20210;-80
2022/05/28 01:13:08;;;;;;;9.90;3.47;;;;;;;10.38;81.50;96017.66;4938365;28;20173;-78
2022/05/28 01:15:51;;;;;;;12.93;3.63;;;;;;;10.14;80.86;96016.22;4974387;28;20245;-79
2022/05/28 01:18:23;;;;;;;6.30;3.43;;;;;;;10.14;80.36;96013.63;4946487;28;20255;-79
2022/05/28 01:20:52;;;;;;;10.20;3.33;;;;;;;9.98;79.65;96017.69;4935785;29;20185;-79
2022/05/28 01:23:28;;;;;;;11.07;4.03;;;;;;;10.07;78.58;96011.69;4934713;29;20252;-78
2022/05/28 01:26:07;;;;;;;13.43;3.30;;;;;;;10.04;78.13;96010.19;4919335;29;20287;-78
2022/05/28 01:28:42;;;;;;;12.10;3.63;;;;;;;10.08;79.49;96013.34;4934851;29;20244;-80
2022/05/28 01:31:08;;;;;;;9.17;3.33;;;;;;;9.88;78.85;96007.28;4919270;29;20193;-79
2022/05/28 01:33:35;;;;;;;6.70;3.10;;;;;;;9.85;79.92;96005.78;4935518;29;20195;-77
2022/05/28 01:36:03;;;;;;;9.60;3.07;;;;;;;9.83;77.21;95999.91;4935299;29;20197;-79
2022/05/28 01:38:29;;;;;;;12.33;3.27;;;;;;;9.71;79.93;96002.72;4935434;29;20189;-80
2022/05/28 01:40:56;;;;;;;10.43;3.07;;;;;;;9.81;80.06;96001.81;4935178;29;20185;-79
2022/05/28 01:43:21;;;;;;;10.47;3.20;;;;;;;9.76;79.42;96003.16;4966667;28;20257;-80
2022/05/28 01:45:48;;;;;;;8.90;3.37;;;;;;;9.67;79.63;96002.16;5009824;28;20206;-79
2022/05/28 01:48:14;;;;;;;9.87;3.40;;;;;;;9.67;79.35;95999.56;5009420;28;20218;-81
2022/05/28 01:50:45;;;;;;;12.07;2.80;;;;;;;9.61;80.03;95994.91;5009628;28;20183;-81
2022/05/28 01:53:12;;;;;;;6.40;2.63;;;;;;;9.64;79.79;96000.66;5026155;28;20212;-79
2022/05/28 01:55:43;;;;;;;13.10;3.00;;;;;;;9.73;79.59;95996.47;5008923;28;20175;-80
2022/05/28 01:58:08;;;;;;;12.60;3.83;;;;;;;9.55;80.18;95996.25;4992867;28;20215;-80
2022/05/28 02:00:33;;;;;;;8.50;2.93;;;;;;;9.57;80.42;95993.53;5009479;28;20194;-79
2022/05/28 02:03:00;;;;;;;10.17;3.57;;;;;;;9.56;80.61;96000.50;5009740;28;20183;-80
2022/05/28 02:05:26;;;;;;;11.23;3.30;;;;;;;9.46;82.28;95996.22;4993059;28;20194;-79
2022/05/28 02:07:51;;;;;;;8.97;3.10;;;;;;;9.44;79.81;95996.31;4992815;28;20219;-80
2022/05/28 02:10:18;;;;;;;8.77;2.97;;;;;;;9.51;80.67;96001.81;5009474;28;20224;-81
2022/05/28 02:13:02;;;;;;;12.53;2.97;;;;;;;9.40;80.34;95988.94;5008939;28;20190;-79
2022/05/28 02:15:44;;;;;;;12.03;3.27;;;;;;;9.47;79.65;95992.66;4992263;28;20281;-79
2022/05/28 02:18:28;;;;;;;5.93;2.73;;;;;;;9.40;79.17;95982.00;4992705;28;20210;-79
2022/05/28 02:21:05;;;;;;;10.17;2.63;;;;;;;9.22;79.40;95991.31;5010253;28;20175;-79
2022/05/28 02:24:01;;;;;;;9.37;3.07;;;;;;;9.37;80.16;95987.44;5009823;28;20197;-80
2022/05/28 02:26:37;;;;;;;10.50;3.20;;;;;;;9.34;80.77;95979.91;4992758;28;20217;-80
2022/05/28 02:29:03;;;;;;;11.00;3.37;;;;;;;9.22;80.30;95979.19;5013006;28;20191;-79
2022/05/28 02:31:31;;;;;;;9.47;3.40;;;;;;;9.21;82.17;95969.78;4996769;28;20180;-80
2022/05/28 02:33:57;;;;;;;13.97;3.50;;;;;;;9.21;81.43;95971.53;5012668;28;20588;-81
2022/05/28 02:36:23;;;;;;;13.40;4.03;;;;;;;9.17;82.07;95968.38;5013275;28;20286;-80
2022/05/28 02:38:48;;;;;;;7.83;2.43;;;;;;;9.11;81.98;95960.31;4996793;28;20217;-80
2022/05/28 02:41:14;;;;;;;22.23;3.97;;;;;;;9.03;83.29;95958.34;5013058;28;20175;-79
2022/05/28 02:43:40;;;;;;;11.87;3.27;;;;;;;9.02;83.70;95957.53;5012486;28;20673;-79
2022/05/28 02:46:06;;;;;;;10.67;3.40;;;;;;;8.99;84.15;95965.53;5012130;28;20175;-80
2022/05/28 02:48:31;;;;;;;9.60;3.30;;;;;;;8.94;84.38;95964.31;5012545;28;20268;-79
2022/05/28 02:51:04;;;;;;;9.43;3.23;;;;;;;8.91;84.93;95964.53;5012995;28;20183;-80
2022/05/28 02:53:30;;;;;;;9.53;3.13;;;;;;;8.86;85.41;95971.88;5013947;28;20171;-79
2022/05/28 02:55:55;;;;;;;12.43;3.53;;;;;;;8.80;85.62;95963.66;5011661;28;20562;-80
2022/05/28 02:58:21;;;;;;;10.30;3.07;;;;;;;8.69;85.27;95955.13;5012484;28;20233;-79
2022/05/28 03:00:46;;;;;;;7.63;2.77;;;;;;;8.70;84.06;95964.53;4996133;28;20179;-80
2022/05/28 03:03:16;;;;;;;7.73;2.73;;;;;;;8.66;84.57;95970.94;5023285;28;20192;-78
2022/05/28 03:05:42;;;;;;;8.37;2.93;;;;;;;8.71;84.04;95964.41;5037164;28;20283;-77
2022/05/28 03:08:07;;;;;;;7.40;2.97;;;;;;;8.70;83.29;95978.31;5036601;28;20211;-78
2022/05/28 03:10:34;;;;;;;8.47;3.13;;;;;;;8.69;83.30;95975.84;5036267;28;20187;-78
2022/05/28 03:12:59;;;;;;;12.50;3.03;;;;;;;8.64;83.61;95976.22;5032871;28;20195;-80
2022/05/28 03:15:25;;;;;;;8.13;2.67;;;;;;;8.55;82.79;95974.38;5012612;28;20214;-80
2022/05/28 03:17:50;;;;;;;11.37;3.20;;;;;;;8.46;82.59;95975.13;5012885;28;20845;-80
2022/05/28 03:20:15;;;;;;;8.60;2.70;;;;;;;8.42;82.93;95973.75;5012527;28;20237;-80
2022/05/28 03:22:40;;;;;;;10.07;3.17;;;;;;;8.41;83.37;95978.09;5012664;28;20648;-80
2022/05/28 03:25:06;;;;;;;11.70;3.73;;;;;;;8.41;83.85;95987.63;5011441;28;20633;-79
2022/05/28 03:27:31;;;;;;;11.23;3.30;;;;;;;8.44;83.99;95982.19;5012044;28;20211;-80
2022/05/28 03:29:57;;;;;;;9.87;3.13;;;;;;;8.40;83.57;95994.56;5011882;28;20183;-79
2022/05/28 03:32:22;;;;;;;11.53;3.60;;;;;;;8.40;84.45;95991.16;4995410;28;20648;-80
2022/05/28 03:34:47;;;;;;;10.73;3.60;;;;;;;8.31;82.61;95992.69;5011124;28;20539;-80
2022/05/28 03:37:12;;;;;;;11.00;3.10;;;;;;;8.47;83.44;95987.13;5011435;28;20195;-81
2022/05/28 03:39:38;;;;;;;12.87;3.20;;;;;;;8.48;83.75;95988.75;5010772;28;20179;-80
2022/05/28 03:42:03;;;;;;;10.40;3.00;;;;;;;8.47;83.12;95987.94;5011622;28;20179;-79
2022/05/28 03:44:29;;;;;;;7.60;2.83;;;;;;;8.54;83.21;95997.81;4994700;28;20175;-79
2022/05/28 03:46:54;;;;;;;12.30;3.27;;;;;;;8.44;84.17;96001.13;5011171;28;20202;-78
2022/05/28 03:49:27;;;;;;;9.97;3.13;;;;;;;8.45;84.39;95992.41;5011664;28;20230;-79
2022/05/28 03:51:55;;;;;;;9.03;2.93;;;;;;;8.47;84.55;96000.88;5027886;28;20179;-80
2022/05/28 03:54:21;;;;;;;11.90;3.30;;;;;;;8.57;83.89;96000.97;5012126;28;20257;-79
2022/05/28 03:56:47;;;;;;;10.03;3.10;;;;;;;8.85;82.85;96001.31;5011189;28;20285;-81
2022/05/28 03:59:12;;;;;;;5.60;2.80;;;;;;;9.12;80.25;96004.22;5011455;28;20285;-80
2022/05/28 04:01:38;;;;;;;10.73;3.10;;;;;;;9.69;76.79;96012.41;4995085;28;20203;-80
2022/05/28 04:04:04;;;;;;;7.73;2.80;;;;;;;10.62;74.13;96012.09;5026937;28;20692;-79
2022/05/28 04:06:29;;;;;;;9.87;2.90;;;;;;;11.35;70.21;95997.63;4994710;28;20211;-80
2022/05/28 04:08:55;;;;;;;7.73;2.60;;;;;;;12.28;66.10;96009.72;4994904;28;20704;-81
2022/05/28 04:11:20;;;;;;;8.07;2.43;;;;;;;12.87;62.29;96000.47;5012983;28;20317;-80
2022/05/28 04:13:45;;;;;;;8.10;2.57;;;;;;;13.23;61.59;96006.47;5010802;28;20206;-80
2022/05/28 04:16:12;;;;;;;10.50;2.17;;;;;;;12.89;62.20;96006.34;5010627;28;20186;-81
2022/05/28 04:18:37;;;;;;;7.50;2.43;;;;;;;12.63;63.09;96005.47;4994662;28;20182;-81
2022/05/28 04:21:02;;;;;;;9.43;2.17;;;;;;;11.98;65.05;96012.63;5011871;28;20500;-80
2022/05/28 04:23:28;;;;;;;8.50;2.33;;;;;;;11.61;67.18;96018.63;5009982;28;20183;-80
2022/05/28 04:25:53;;;;;;;8.13;2.53;;;;;;;11.49;67.85;96017.19;5011662;28;20308;-81
2022/05/28 04:28:18;;;;;;;9.87;2.83;;;;;;;12.42;64.77;96016.19;5010964;28;20274;-79
2022/05/28 04:30:44;;;;;;;7.47;2.53;;;;;;;13.64;58.66;96019.78;4994291;28;20202;-78
2022/05/28 04:33:09;;;;;;;4.00;1.75;;;;;;;14.79;54.40;96027.06;5010816;28;20175;-79
2022/05/28 04:35:34;;;;;;;7.57;2.17;;;;;;;15.93;50.24;96028.78;4994351;28;20203;-79
2022/05/28 04:38:00;;;;;;;5.28;1.75;;;;;;;16.40;48.74;96028.72;5012446;28;20195;-78
2022/05/28 04:40:25;;;;;;;5.15;1.95;;;;;;;16.38;47.93;96022.84;5011335;28;20190;-79
2022/05/28 04:42:50;;;;;;;6.15;1.80;;;;;;;16.67;47.68;96023.00;5011099;28;20202;-78
2022/05/28 04:45:16;;;;;;;6.18;2.30;;;;;;;16.33;48.56;96023.34;5010678;28;20648;-79
2022/05/28 04:47:41;;;;;;;10.38;2.08;;;;;;;15.80;48.48;96030.09;5011990;28;20223;-78
2022/05/28 04:50:07;;;;;;;5.65;2.35;;;;;;;16.14;49.35;96034.25;4994834;28;20183;-77
2022/05/28 04:52:32;;;;;;;6.63;2.00;;;;;;;14.82;50.95;96024.13;4994751;28;20182;-78
2022/05/28 04:54:57;;;;;;;8.73;2.03;;;;;;;14.56;52.82;96031.25;5010865;28;20184;-78
2022/05/28 04:57:23;;;;;;;8.90;2.38;;;;;;;14.55;52.68;96037.47;5011039;28;20288;-79
2022/05/28 04:59:48;;;;;;;8.55;2.33;;;;;;;14.34;54.46;96041.31;5011021;28;20172;-79
2022/05/28 05:02:15;;;;;;;6.45;2.03;;;;;;;14.14;54.87;96042.56;4994363;28;20175;-78
2022/05/28 05:04:40;;;;;;;8.13;2.20;;;;;;;13.91;55.49;96031.03;5010179;28;20203;-79
2022/05/28 05:07:05;;;;;;;6.50;2.30;;;;;;;13.44;56.30;96037.47;5011097;28;20611;-79
2022/05/28 05:09:31;;;;;;;7.60;1.80;;;;;;;13.58;55.69;96028.22;5011171;28;20613;-77
2022/05/28 05:11:56;;;;;;;4.28;1.77;;;;;;;13.91;55.31;96036.25;4994982;28;20197;-79
2022/05/28 05:14:21;;;;;;;6.30;2.20;;;;;;;14.12;54.26;96037.47;5011808;28;20179;-79
2022/05/28 05:16:47;;;;;;;7.10;2.63;;;;;;;15.38;49.69;96043.44;5011140;28;20203;-79
2022/05/28 05:19:12;;;;;;;7.07;2.17;;;;;;;15.93;47.57;96041.88;5010799;28;20179;-77
2022/05/28 05:21:37;;;;;;;4.88;1.60;;;;;;;16.51;46.78;96044.06;5010840;28;20266;-78
2022/05/28 05:24:03;;;;;;;5.20;1.85;;;;;;;18.54;40.81;96049.28;5009114;28;20179;-79
2022/05/28 05:26:28;;;;;;;6.65;1.90;;;;;;;17.96;41.22;96048.38;4994092;28;20207;-78
2022/05/28 05:28:54;;;;;;;5.20;1.70;;;;;;;18.01;40.64;96047.81;5011316;28;20241;-79
2022/05/28 05:31:19;;;;;;;6.15;1.90;;;;;;;18.43;42.53;96048.97;5010025;28;20210;-79
2022/05/28 05:33:45;;;;;;;7.40;2.28;;;;;;;18.33;40.60;96050.06;4993249;28;20210;-79
2022/05/28 05:36:10;;;;;;;6.53;1.80;;;;;;;18.05;40.23;96046.47;4993935;28;20607;-77
2022/05/28 05:38:36;;;;;;;6.35;1.80;;;;;;;19.31;38.76;96047.88;5010129;28;20174;-77
2022/05/28 05:41:02;;;;;;;8.38;2.20;;;;;;;19.99;37.23;96054.31;4993886;28;20592;-78
2022/05/28 05:43:27;;;;;;;6.38;1.75;;;;;;;18.80;39.00;96053.25;5026141;28;20273;-77
2022/05/28 05:45:57;;;;;;;4.43;1.65;;;;;;;18.54;40.03;96061.63;5009939;28;20183;-78
2022/05/28 05:48:22;;;;;;;5.65;2.30;;;;;;;18.42;38.86;96057.84;5026367;28;20254;-78
2022/05/28 05:50:48;;;;;;;5.45;2.13;;;;;;;19.06;38.93;96061.44;5010810;28;20215;-79
2022/05/28 05:53:13;;;;;;;6.53;1.60;;;;;;;19.31;37.35;96056.59;5010594;28;20206;-78
2022/05/28 05:55:39;;;;;;;5.82;1.83;;;;;;;19.56;38.14;96066.72;5009910;28;20661;-78
2022/05/28 05:58:04;;;;;;;7.47;2.20;;;;;;;20.11;37.25;96062.47;4993416;28;20217;-77
2022/05/28 06:00:30;;;;;;;5.00;1.67;;;;;;;20.40;35.29;96064.84;5012212;28;20183;-79
2022/05/28 06:02:55;;;;;;;6.78;2.05;;;;;;;21.26;33.64;96067.78;4996396;28;20175;-79
2022/05/28 06:05:21;;;;;;;11.07;2.00;;;;;;;21.01;32.92;96070.16;5029719;28;20187;-76
2022/05/28 06:07:46;;;;;;;6.80;2.00;;;;;;;20.84;33.94;96072.34;5017003;28;20242;-77
2022/05/28 06:10:11;;;;;;;5.43;1.77;;;;;;;20.90;33.46;96068.13;5033508;28;20187;-77
2022/05/28 06:12:37;;;;;;;6.47;1.90;;;;;;;20.73;33.39;96059.72;5048604;28;20179;-77
2022/05/28 06:15:03;;;;;;;6.45;2.17;;;;;;;21.40;33.87;96073.94;5032385;28;20171;-77
2022/05/28 06:17:28;;;;;;;6.45;1.73;;;;;;;20.48;33.67;96067.34;5015153;28;20203;-79
2022/05/28 06:19:54;;;;;;;6.88;2.08;;;;;;;20.47;34.03;96057.81;5013613;28;20187;-79
2022/05/28 06:22:19;;;;;;;5.55;1.90;;;;;;;19.38;35.35;96064.56;5013841;28;20183;-78
2022/05/28 06:24:44;;;;;;;6.28;1.60;;;;;;;18.75;39.02;96058.28;5012785;28;20183;-79
2022/05/28 06:27:10;;;;;;;5.82;1.75;;;;;;;18.88;36.83;96059.22;4996487;28;20219;-78
2022/05/28 06:29:35;;;;;;;7.43;2.30;;;;;;;19.14;37.67;96063.94;5012780;28;20190;-78
2022/05/28 06:32:00;;;;;;;6.90;1.92;;;;;;;19.94;35.27;96060.13;5013169;28;20179;-78
2022/05/28 06:34:25;;;;;;;4.85;1.70;;;;;;;20.73;34.44;96072.13;5012338;28;20178;-78
2022/05/28 06:36:51;;;;;;;6.68;2.10;;;;;;;21.17;31.28;96075.06;5012673;28;20202;-78
2022/05/28 06:39:16;;;;;;;4.80;1.50;;;;;;;21.59;31.09;96070.47;5013941;28;20680;-79
2022/05/28 06:41:41;;;;;;;9.00;1.73;;;;;;;20.55;33.33;96073.47;5012689;28;20548;-77
2022/05/28 06:44:07;;;;;;;5.13;1.83;;;;;;;21.04;33.05;96072.41;4979634;28;20179;-79
2022/05/28 06:46:32;;;;;;;7.60;1.88;;;;;;;21.83;30.59;96071.69;5012857;28;20318;-78
2022/05/28 06:48:57;;;;;;;7.45;1.60;;;;;;;21.80;29.07;96069.44;5012914;28;20199;-78
2022/05/28 06:51:23;;;;;;;4.75;1.48;;;;;;;21.37;30.78;96080.41;5013061;28;20556;-77
2022/05/28 06:53:48;;;;;;;6.00;1.92;;;;;;;21.00;31.62;96078.28;4996210;28;20269;-79
2022/05/28 06:56:18;;;;;;;5.45;1.58;;;;;;;19.92;31.97;96071.88;4996485;28;20183;-78
2022/05/28 06:58:44;;;;;;;5.28;1.30;;;;;;;21.73;29.53;96079.19;5028951;28;20601;-79
2022/05/28 07:01:10;;;;;;;7.85;1.73;;;;;;;20.63;32.64;96080.41;5013706;28;20206;-79
2022/05/28 07:03:36;;;;;;;4.65;1.60;;;;;;;20.73;32.71;96077.41;5013457;28;20176;-79
2022/05/28 07:06:02;;;;;;;4.80;1.40;;;;;;;20.19;32.09;96075.50;5029800;28;20183;-79
2022/05/28 07:08:27;;;;;;;5.30;1.45;;;;;;;20.59;32.83;96076.56;5012961;28;20203;-78
2022/05/28 07:10:55;;;;;;;6.28;1.60;;;;;;;20.78;31.73;96077.63;5013468;28;20565;-79
2022/05/28 07:13:21;;;;;;;4.15;1.70;;;;;;;21.68;29.95;96073.72;5014428;28;20281;-78
2022/05/28 07:15:47;;;;;;;4.97;1.20;;;;;;;22.03;29.82;96069.00;5013929;28;20556;-79
2022/05/28 07:18:13;;;;;;;6.38;1.60;;;;;;;20.77;30.37;96065.44;5014353;28;20187;-80
2022/05/28 07:20:38;;;;;;;6.35;1.55;;;;;;;21.02;30.86;96065.69;4996202;28;20185;-79
2022/05/28 07:23:09;;;;;;;5.57;1.40;;;;;;;21.77;28.26;96056.63;4978142;28;20186;-79
2022/05/28 07:25:34;;;;;;;5.13;1.35;;;;;;;21.64;29.00;96059.28;5011732;28;20183;-79
2022/05/28 07:27:59;;;;;;;6.20;1.75;;;;;;;20.06;30.98;96058.59;4979671;28;20265;-78
2022/05/28 07:30:25;;;;;;;3.92;1.55;;;;;;;18.47;33.25;96058.13;5012316;28;20540;-79
2022/05/28 07:32:50;;;;;;;4.60;1.50;;;;;;;19.72;33.71;96055.94;5013062;28;20183;-79
2022/05/28 07:35:15;;;;;;;4.47;1.20;;;;;;;19.92;32.18;96054.25;4995267;28;20175;-78
2022/05/28 07:37:40;;;;;;;4.55;1.20;;;;;;;19.13;33.31;96056.22;4995764;28;20254;-79
2022/05/28 07:40:06;;;;;;;4.53;1.30;;;;;;;19.58;31.37;96062.13;4995884;28;20572;-79
2022/05/28 07:42:32;;;;;;;8.20;1.77;;;;;;;19.24;32.10;96063.63;4995818;28;20223;-78
2022/05/28 07:44:57;;;;;;;4.60;1.40;;;;;;;19.13;33.22;96050.97;5011638;28;20267;-79
2022/05/28 07:47:22;;;;;;;3.05;1.38;;;;;;;18.40;34.62;96045.72;4996150;28;20659;-79
2022/05/28 07:49:47;;;;;;;5.57;1.25;;;;;;;18.80;34.18;96046.19;5011683;28;20190;-79
2022/05/28 07:52:13;;;;;;;6.40;2.25;;;;;;;18.83;33.16;96053.72;5012137;28;20190;-79
2022/05/28 07:54:38;;;;;;;2.28;1.00;;;;;;;17.83;34.06;96042.91;5011473;28;20183;-79
2022/05/28 07:57:04;;;;;;;4.55;1.38;;;;;;;17.38;36.06;96035.94;4995189;28;20290;-78
2022/05/28 07:59:30;;;;;;;6.20;1.33;;;;;;;17.18;36.17;96030.38;5011743;28;20187;-79
2022/05/28 08:01:56;;;;;;;3.10;1.33;;;;;;;17.72;36.53;96030.25;4995233;28;20193;-79
2022/05/28 08:04:21;;;;;;;3.95;1.55;;;;;;;17.72;38.20;96036.31;4994703;28;20249;-79
2022/05/28 08:06:47;;;;;;;5.22;1.42;;;;;;;17.20;37.09;96034.44;5012833;28;20676;-80
2022/05/28 08:09:12;;;;;;;4.63;1.42;;;;;;;17.32;36.41;96039.31;5011469;28;20207;-78
2022/05/28 08:11:38;;;;;;;6.65;1.52;;;;;;;15.79;40.00;96038.13;5012206;28;20218;-80
2022/05/28 08:14:04;;;;;;;4.38;1.30;;;;;;;14.92;41.99;96035.22;4994543;28;20237;-77
2022/05/28 08:16:33;;;;;;;4.28;1.30;;;;;;;15.23;41.18;96030.19;5011264;28;20195;-78
2022/05/28 08:18:58;;;;;;;8.60;1.50;;;;;;;15.72;40.73;96029.31;4994919;28;20163;-78
2022/05/28 08:24:08;;;;;;;4.80;1.20;;;;;;;16.91;37.87;96029.13;5009517;28;20638;-79
2022/05/28 08:26:38;;;;;;;4.97;1.30;;;;;;;16.42;40.43;96032.81;5010337;28;20245;-79
2022/05/28 08:29:03;;;;;;;4.57;1.70;;;;;;;15.16;40.56;96023.97;5011106;28;20199;-79
2022/05/28 08:31:29;;;;;;;5.97;1.40;;;;;;;14.95;41.68;96021.84;4994713;28;20181;-79
2022/05/28 08:33:56;;;;;;;3.03;1.43;;;;;;;14.77;42.47;96029.03;4994074;28;20180;-81
2022/05/28 08:36:21;;;;;;;4.70;1.30;;;;;;;15.12;42.58;96020.06;4994756;28;20191;-79
2022/05/28 08:38:47;;;;;;;5.03;1.33;;;;;;;15.76;42.63;96026.19;4994644;28;20171;-79
2022/05/28 08:41:22;;;;;;;3.17;1.30;;;;;;;15.54;39.86;96029.47;5010446;28;20191;-80
2022/05/28 08:44:06;;;;;;;5.47;1.40;;;;;;;14.96;40.62;96018.25;5026573;28;20175;-78
2022/05/28 08:46:34;;;;;;;4.70;1.50;;;;;;;15.07;42.85;96017.09;5010725;28;20304;-79
2022/05/28 08:49:01;;;;;;;5.33;0.90;;;;;;;15.50;40.49;96013.31;5026947;28;20253;-78
2022/05/28 08:51:40;;;;;;;6.73;1.37;;;;;;;15.99;42.61;96022.84;4993898;28;20179;-78
2022/05/28 08:54:10;;;;;;;3.63;1.40;;;;;;;16.30;41.98;96010.59;5026618;28;20171;-78
2022/05/28 08:56:37;;;;;;;4.80;1.40;;;;;;;16.19;40.57;96020.66;5027117;28;20199;-79
2022/05/28 08:59:31;;;;;;;4.43;1.48;;;;;;;17.18;38.44;96018.06;4994046;28;20183;-77
2022/05/28 09:01:57;;;;;;;3.22;1.30;;;;;;;16.85;37.72;96017.50;4978174;28;20190;-79
2022/05/28 09:04:31;;;;;;;6.07;1.60;;;;;;;16.32;42.61;96019.09;4993433;28;20171;-79
2022/05/28 09:07:02;;;;;;;2.63;1.15;;;;;;;16.73;39.73;96024.16;4993949;28;20812;-81
2022/05/28 09:09:47;;;;;;;6.88;1.30;;;;;;;16.06;39.97;96019.38;4993999;28;20171;-79
2022/05/28 09:12:19;;;;;;;6.85;1.25;;;;;;;15.35;41.66;96009.72;5010367;28;20175;-81
2022/05/28 09:14:45;;;;;;;4.25;1.35;;;;;;;16.08;40.06;96012.19;5010800;28;20178;-80
2022/05/28 09:17:28;;;;;;;8.15;1.25;;;;;;;15.98;41.56;96011.56;5011224;28;20199;-80
2022/05/28 09:19:56;;;;;;;4.07;1.30;;;;;;;15.68;40.19;96012.31;4993904;28;20623;-78
2022/05/28 09:22:22;;;;;;;4.37;1.03;;;;;;;15.56;41.82;96007.41;5026778;28;20190;-78
2022/05/28 09:24:47;;;;;;;3.90;1.40;;;;;;;15.46;42.37;96011.16;5007891;28;20180;-80
2022/05/28 09:27:22;;;;;;;3.20;0.90;;;;;;;15.55;42.89;96013.63;5011243;28;20586;-79
2022/05/28 09:29:57;;;;;;;3.80;1.20;;;;;;;15.45;42.49;96012.97;4993772;28;20178;-78
2022/05/28 09:32:43;;;;;;;4.37;1.10;;;;;;;15.30;39.31;96014.66;5011558;28;20198;-79
2022/05/28 09:35:22;;;;;;;3.37;1.10;;;;;;;15.72;39.94;96009.19;4993061;28;20323;-79
2022/05/28 09:37:59;;;;;;;4.90;1.20;;;;;;;15.65;40.77;96002.19;5025469;28;20213;-79
2022/05/28 09:40:38;;;;;;;6.03;2.17;;;;;;;14.54;42.63;96002.69;5012625;28;20274;-77
2022/05/28 09:43:39;;;;;;;5.70;1.30;;;;;;;13.91;46.13;95997.09;5011261;28;20549;-78
2022/05/28 09:46:26;;;;;;;5.23;1.30;;;;;;;14.00;44.91;95996.13;5010789;28;20708;-78
2022/05/28 09:48:59;;;;;;;3.47;1.03;;;;;;;14.89;44.70;95991.13;4994435;28;20207;-79
2022/05/28 09:51:27;;;;;;;4.30;1.30;;;;;;;15.78;44.18;95997.22;5027055;28;20201;-79
2022/05/28 09:54:17;;;;;;;2.43;1.23;;;;;;;16.82;40.86;95991.63;5009717;28;20175;-79
2022/05/28 09:56:56;;;;;;;4.93;1.20;;;;;;;16.67;37.15;95994.16;5025147;28;20195;-79
2022/05/28 09:59:29;;;;;;;3.63;1.40;;;;;;;16.32;37.92;95994.69;5010434;28;20182;-79
2022/05/28 10:02:07;;;;;;;3.30;1.07;;;;;;;16.30;37.86;95989.63;5010153;28;20262;-79
2022/05/28 10:04:43;;;;;;;4.87;1.60;;;;;;;15.66;39.95;95988.09;5009542;28;20312;-78
2022/05/28 10:07:08;;;;;;;4.40;0.90;;;;;;;16.07;41.52;95981.72;4993432;28;20259;-78
2022/05/28 10:09:34;;;;;;;4.40;1.20;;;;;;;16.05;39.78;95983.69;5011245;28;20696;-80
2022/05/28 10:12:23;;;;;;;4.40;1.07;;;;;;;15.06;42.16;95975.41;4994196;28;20183;-79
2022/05/28 10:15:18;;;;;;;6.00;2.03;;;;;;;15.64;42.83;95982.22;4993714;28;20203;-79
2022/05/28 10:17:54;;;;;;;3.03;1.30;;;;;;;15.42;41.55;95981.91;4981439;28;20569;-79
2022/05/28 10:20:20;;;;;;;3.63;1.60;;;;;;;15.63;41.23;95986.63;4993459;28;20174;-79
2022/05/28 10:22:51;;;;;;;7.90;1.50;;;;;;;15.72;43.02;95988.22;4992613;28;20187;-79
2022/05/28 10:25:31;;;;;;;3.30;1.33;;;;;;;15.99;41.27;95991.41;4993149;28;20244;-78
2022/05/28 10:27:56;;;;;;;4.70;1.30;;;;;;;15.84;41.19;95991.31;5009925;28;20230;-78
2022/05/28 10:30:32;;;;;;;4.55;1.20;;;;;;;15.87;42.63;95985.72;4994087;28;20191;-79
2022/05/28 10:33:01;;;;;;;4.90;1.30;;;;;;;15.02;43.99;95983.59;5010233;28;20220;-79
2022/05/28 10:35:28;;;;;;;5.87;1.47;;;;;;;15.92;43.10;95977.38;5009435;28;20651;-79
2022/05/28 10:38:11;;;;;;;5.53;1.70;;;;;;;15.86;42.15;95984.91;5009885;28;20202;-79
2022/05/28 10:40:47;;;;;;;4.40;1.55;;;;;;;16.30;43.01;95986.19;4993523;28;20218;-80
2022/05/28 10:43:22;;;;;;;4.00;1.30;;;;;;;15.97;42.96;95975.06;5026567;28;20578;-80
2022/05/28 10:45:54;;;;;;;7.13;1.40;;;;;;;16.05;40.82;95975.84;5009618;28;20306;-80
2022/05/28 10:48:46;;;;;;;4.68;1.25;;;;;;;16.36;40.50;95975.03;4994310;28;20215;-79
2022/05/28 10:51:33;;;;;;;5.18;1.40;;;;;;;16.75;39.04;95968.91;4997160;28;20179;-80
2022/05/28 10:54:19;;;;;;;2.97;1.15;;;;;;;16.86;38.92;95968.47;5013113;28;20171;-80
2022/05/28 10:57:04;;;;;;;2.55;1.00;;;;;;;17.07;39.57;95968.66;4997315;28;20226;-79
2022/05/28 10:59:41;;;;;;;6.13;1.40;;;;;;;16.43;38.41;95968.09;5013268;28;20174;-78
2022/05/28 11:02:25;;;;;;;3.83;1.13;;;;;;;16.72;39.71;95959.59;4996685;28;20714;-79
2022/05/28 11:05:00;;;;;;;5.18;1.40;;;;;;;17.08;38.07;95956.34;4996109;28;20175;-80
2022/05/28 11:08:03;;;;;;;3.70;1.45;;;;;;;17.30;39.54;95958.09;4996679;28;20210;-79
2022/05/28 11:10:41;;;;;;;4.45;1.50;;;;;;;17.58;38.73;95954.84;5014256;28;20179;-80
2022/05/28 11:13:25;;;;;;;3.10;1.58;;;;;;;17.10;39.22;95949.91;4998333;28;20190;-79
2022/05/28 11:16:06;;;;;;;5.65;1.30;;;;;;;18.26;37.98;95949.28;5027564;28;20174;-78
2022/05/28 11:19:02;;;;;;;2.92;1.35;;;;;;;18.30;33.85;95939.22;5037342;28;20178;-78
2022/05/28 11:21:45;;;;;;;2.95;1.10;;;;;;;17.89;36.16;95933.69;5021211;28;20178;-77
2022/05/28 11:24:48;;;;;;;4.03;1.48;;;;;;;17.78;37.16;95932.34;5016850;28;20198;-80
2022/05/28 11:27:32;;;;;;;4.30;1.45;;;;;;;18.17;37.51;95926.72;5017936;28;20210;-79
2022/05/28 11:30:17;;;;;;;2.88;1.42;;;;;;;17.55;36.25;95929.78;5000540;28;20186;-79
2022/05/28 11:32:50;;;;;;;5.72;1.52;;;;;;;17.71;37.36;95926.19;5013061;28;20175;-80
2022/05/28 11:35:38;;;;;;;3.55;1.30;;;;;;;18.24;36.61;95927.63;5013613;28;20311;-77
2022/05/28 11:38:16;;;;;;;3.95;1.23;;;;;;;18.09;37.29;95922.41;5014344;28;20194;-79
2022/05/28 11:40:53;;;;;;;3.63;1.20;;;;;;;17.37;37.37;95921.44;5014103;28;20171;-79
2022/05/28 11:43:23;;;;;;;5.90;1.60;;;;;;;17.81;37.73;95914.38;5012765;28;20175;-78
2022/05/28 11:46:40;;;;;;;6.65;2.25;;;;;;;17.15;36.55;95910.03;5011902;28;20184;-79
2022/05/28 11:52:30;;;;;;;6.85;2.80;;;;;;;17.99;35.28;95900.03;5013635;28;20189;-79